sensor_id;sensor_type;location;lat;lon;timestamp;pressure;altitude;pressure_sealevel;temperature;humidity
51259;BME280;37327;54.254;18.504;2023-04-02T00:04:27;100511.29;;;0.97;100.00
51259;BME280;37327;54.254;18.504;2023-04-02T00:07:52;100504.92;;;1.00;100.00
51259;BME280;37327;54.254;18.504;2023-04-02T00:11:25;100511.91;;;1.01;100.00
51259;BME280;37327;54.254;18.504;2023-04-02T00:14:45;100518.68;;;1.05;100.00
51259;BME280;37327;54.254;18.504;2023-04-02T00:18:04;100525.58;;;1.08;100.00
51259;BME280;37327;54.254;18.504;2023-04-02T00:21:32;100514.80;;;1.09;100.00
51259;BME280;37327;54.254;18.504;2023-04-02T00:24:52;100534.17;;;1.11;100.00
51259;BME280;37327;54.254;18.504;2023-04-02T00:28:20;100529.44;;;1.15;100.00
51259;BME280;37327;54.254;18.504;2023-04-02T00:31:41;100528.38;;;1.17;100.00
51259;BME280;37327;54.254;18.504;2023-04-02T00:34:59;100531.77;;;1.20;100.00
51259;BME280;37327;54.254;18.504;2023-04-02T00:38:26;100545.77;;;1.22;100.00
51259;BME280;37327;54.254;18.504;2023-04-02T00:41:44;100538.52;;;1.24;100.00
51259;BME280;37327;54.254;18.504;2023-04-02T00:45:09;100550.72;;;1.26;100.00
51259;BME280;37327;54.254;18.504;2023-04-02T00:48:55;100558.59;;;1.28;100.00
51259;BME280;37327;54.254;18.504;2023-04-02T00:52:05;100565.61;;;1.17;100.00
51259;BME280;37327;54.254;18.504;2023-04-02T00:55:29;100566.53;;;1.05;100.00
51259;BME280;37327;54.254;18.504;2023-04-02T00:58:52;100571.13;;;0.92;100.00
51259;BME280;37327;54.254;18.504;2023-04-02T01:02:20;100569.51;;;0.78;100.00
51259;BME280;37327;54.254;18.504;2023-04-02T01:05:44;100573.95;;;0.66;100.00
51259;BME280;37327;54.254;18.504;2023-04-02T01:09:09;100583.11;;;0.62;100.00
51259;BME280;37327;54.254;18.504;2023-04-02T01:19:43;100579.00;;;0.58;100.00
51259;BME280;37327;54.254;18.504;2023-04-02T01:23:06;100582.38;;;0.60;100.00
51259;BME280;37327;54.254;18.504;2023-04-02T01:26:33;100584.82;;;0.63;100.00
51259;BME280;37327;54.254;18.504;2023-04-02T01:29:55;100586.76;;;0.61;100.00
51259;BME280;37327;54.254;18.504;2023-04-02T01:33:14;100582.63;;;0.57;100.00
51259;BME280;37327;54.254;18.504;2023-04-02T01:36:38;100584.30;;;0.58;100.00
51259;BME280;37327;54.254;18.504;2023-04-02T01:40:10;100589.63;;;0.58;100.00
51259;BME280;37327;54.254;18.504;2023-04-02T01:46:56;100592.54;;;0.66;100.00
51259;BME280;37327;54.254;18.504;2023-04-02T01:50:26;100599.94;;;0.74;100.00
51259;BME280;37327;54.254;18.504;2023-04-02T01:53:48;100603.95;;;0.79;100.00
51259;BME280;37327;54.254;18.504;2023-04-02T01:57:06;100610.49;;;0.87;100.00
51259;BME280;37327;54.254;18.504;2023-04-02T02:00:26;100618.11;;;0.91;100.00
51259;BME280;37327;54.254;18.504;2023-04-02T02:03:46;100616.80;;;0.97;100.00
51259;BME280;37327;54.254;18.504;2023-04-02T02:07:04;100616.58;;;1.00;100.00
51259;BME280;37327;54.254;18.504;2023-04-02T02:10:34;100631.43;;;1.03;100.00
51259;BME280;37327;54.254;18.504;2023-04-02T02:13:56;100631.21;;;1.06;100.00
51259;BME280;37327;54.254;18.504;2023-04-02T02:17:16;100623.10;;;1.07;100.00
51259;BME280;37327;54.254;18.504;2023-04-02T02:20:34;100638.83;;;1.10;100.00
51259;BME280;37327;54.254;18.504;2023-04-02T02:23:53;100643.20;;;1.11;100.00
51259;BME280;37327;54.254;18.504;2023-04-02T02:27:31;100651.91;;;1.13;100.00
51259;BME280;37327;54.254;18.504;2023-04-02T02:30:46;100648.27;;;1.14;100.00
51259;BME280;37327;54.254;18.504;2023-04-02T02:34:10;100659.63;;;1.16;100.00
51259;BME280;37327;54.254;18.504;2023-04-02T02:37:35;100653.37;;;1.17;100.00
51259;BME280;37327;54.254;18.504;2023-04-02T02:41:04;100663.86;;;1.19;100.00
51259;BME280;37327;54.254;18.504;2023-04-02T02:44:27;100664.95;;;1.16;100.00
51259;BME280;37327;54.254;18.504;2023-04-02T02:47:47;100665.31;;;1.12;100.00
51259;BME280;37327;54.254;18.504;2023-04-02T02:51:10;100665.64;;;1.07;100.00
51259;BME280;37327;54.254;18.504;2023-04-02T02:54:32;100668.66;;;1.03;100.00
51259;BME280;37327;54.254;18.504;2023-04-02T02:57:55;100667.57;;;1.05;100.00
51259;BME280;37327;54.254;18.504;2023-04-02T03:01:14;100681.16;;;1.13;100.00
51259;BME280;37327;54.254;18.504;2023-04-02T03:04:34;100676.32;;;1.18;100.00
51259;BME280;37327;54.254;18.504;2023-04-02T03:07:55;100676.10;;;1.22;100.00
51259;BME280;37327;54.254;18.504;2023-04-02T03:11:32;100679.48;;;1.24;100.00
51259;BME280;37327;54.254;18.504;2023-04-02T03:14:52;100679.12;;;1.28;100.00
51259;BME280;37327;54.254;18.504;2023-04-02T03:18:18;100692.09;;;1.33;100.00
51259;BME280;37327;54.254;18.504;2023-04-02T03:21:50;100697.15;;;1.36;100.00
51259;BME280;37327;54.254;18.504;2023-04-02T03:32:18;100691.62;;;1.39;100.00
51259;BME280;37327;54.254;18.504;2023-04-02T03:35:44;100714.57;;;1.40;100.00
51259;BME280;37327;54.254;18.504;2023-04-02T03:39:14;100717.13;;;1.42;100.00
51259;BME280;37327;54.254;18.504;2023-04-02T03:46:14;100723.40;;;1.41;100.00
51259;BME280;37327;54.254;18.504;2023-04-02T03:49:40;100741.18;;;1.40;100.00
51259;BME280;37327;54.254;18.504;2023-04-02T03:53:02;100746.50;;;1.40;100.00
51259;BME280;37327;54.254;18.504;2023-04-02T03:56:30;100754.48;;;1.40;100.00
51259;BME280;37327;54.254;18.504;2023-04-02T04:00:03;100750.00;;;1.41;100.00
51259;BME280;37327;54.254;18.504;2023-04-02T04:03:29;100769.49;;;1.41;100.00
51259;BME280;37327;54.254;18.504;2023-04-02T04:06:49;100766.83;;;1.41;100.00
51259;BME280;37327;54.254;18.504;2023-04-02T04:10:16;100790.77;;;1.41;100.00
51259;BME280;37327;54.254;18.504;2023-04-02T04:13:49;100785.46;;;1.41;100.00
51259;BME280;37327;54.254;18.504;2023-04-02T04:17:13;100788.12;;;1.41;100.00
51259;BME280;37327;54.254;18.504;2023-04-02T04:27:50;100799.60;;;1.42;100.00
51259;BME280;37327;54.254;18.504;2023-04-02T04:31:16;100800.45;;;1.42;100.00
51259;BME280;37327;54.254;18.504;2023-04-02T04:34:41;100820.77;;;1.43;100.00
51259;BME280;37327;54.254;18.504;2023-04-02T04:38:12;100825.26;;;1.43;100.00
51259;BME280;37327;54.254;18.504;2023-04-02T04:41:34;100822.59;;;1.43;100.00
51259;BME280;37327;54.254;18.504;2023-04-02T04:45:05;100829.70;;;1.42;100.00
51259;BME280;37327;54.254;18.504;2023-04-02T04:55:36;100842.91;;;1.44;99.65
51259;BME280;37327;54.254;18.504;2023-04-02T05:02:26;100854.38;;;1.44;99.39
51259;BME280;37327;54.254;18.504;2023-04-02T05:05:46;100848.23;;;1.44;99.53
51259;BME280;37327;54.254;18.504;2023-04-02T05:09:12;100862.27;;;1.46;99.53
51259;BME280;37327;54.254;18.504;2023-04-02T05:12:41;100867.59;;;1.46;99.58
51259;BME280;37327;54.254;18.504;2023-04-02T05:16:08;100872.90;;;1.46;99.05
51259;BME280;37327;54.254;18.504;2023-04-02T05:19:37;100884.39;;;1.46;99.23
51259;BME280;37327;54.254;18.504;2023-04-02T05:26:31;100880.04;;;1.45;99.63
51259;BME280;37327;54.254;18.504;2023-04-02T05:30:30;100891.42;;;1.47;100.00
51259;BME280;37327;54.254;18.504;2023-04-02T05:33:26;100914.39;;;1.48;100.00
51259;BME280;37327;54.254;18.504;2023-04-02T05:36:45;100919.61;;;1.50;100.00
51259;BME280;37327;54.254;18.504;2023-04-02T05:40:11;100916.11;;;1.49;100.00
51259;BME280;37327;54.254;18.504;2023-04-02T05:43:32;100923.11;;;1.50;100.00
51259;BME280;37327;54.254;18.504;2023-04-02T05:46:57;100921.33;;;1.51;100.00
51259;BME280;37327;54.254;18.504;2023-04-02T05:50:39;100932.71;;;1.53;100.00
51259;BME280;37327;54.254;18.504;2023-04-02T05:53:50;100933.54;;;1.53;100.00
51259;BME280;37327;54.254;18.504;2023-04-02T05:57:16;100937.92;;;1.54;100.00
51259;BME280;37327;54.254;18.504;2023-04-02T06:00:48;100952.06;;;1.55;100.00
51259;BME280;37327;54.254;18.504;2023-04-02T06:11:17;100957.39;;;1.55;100.00
51259;BME280;37327;54.254;18.504;2023-04-02T06:14:36;100973.26;;;1.56;100.00
51259;BME280;37327;54.254;18.504;2023-04-02T06:21:21;100975.77;;;1.58;100.00
51259;BME280;37327;54.254;18.504;2023-04-02T06:24:40;100988.24;;;1.57;100.00
51259;BME280;37327;54.254;18.504;2023-04-02T06:27:59;100979.42;;;1.57;100.00
51259;BME280;37327;54.254;18.504;2023-04-02T06:34:47;100996.02;;;1.61;100.00
51259;BME280;37327;54.254;18.504;2023-04-02T06:38:11;101009.08;;;1.64;100.00
51259;BME280;37327;54.254;18.504;2023-04-02T06:41:29;101000.99;;;1.65;100.00
51259;BME280;37327;54.254;18.504;2023-04-02T06:44:46;101008.87;;;1.67;100.00
51259;BME280;37327;54.254;18.504;2023-04-02T06:48:05;101039.09;;;1.66;100.00
51259;BME280;37327;54.254;18.504;2023-04-02T06:51:25;101022.92;;;1.69;100.00
51259;BME280;37327;54.254;18.504;2023-04-02T06:54:44;101021.84;;;1.71;100.00
51259;BME280;37327;54.254;18.504;2023-04-02T06:58:03;101029.82;;;1.71;100.00
51259;BME280;37327;54.254;18.504;2023-04-02T07:01:28;101067.19;;;1.70;99.83
51259;BME280;37327;54.254;18.504;2023-04-02T07:04:47;101047.61;;;1.71;99.74
51259;BME280;37327;54.254;18.504;2023-04-02T07:08:05;101051.02;;;1.73;100.00
51259;BME280;37327;54.254;18.504;2023-04-02T07:11:24;101063.38;;;1.74;99.77
51259;BME280;37327;54.254;18.504;2023-04-02T07:14:45;101057.80;;;1.77;99.54
51259;BME280;37327;54.254;18.504;2023-04-02T07:18:04;101080.59;;;1.81;99.26
51259;BME280;37327;54.254;18.504;2023-04-02T07:21:21;101066.95;;;1.86;98.52
51259;BME280;37327;54.254;18.504;2023-04-02T07:24:38;101066.50;;;1.92;98.48
51259;BME280;37327;54.254;18.504;2023-04-02T07:27:56;101069.23;;;2.03;98.61
51259;BME280;37327;54.254;18.504;2023-04-02T07:31:18;101083.89;;;2.09;97.79
51259;BME280;37327;54.254;18.504;2023-04-02T07:34:37;101080.06;;;2.13;97.80
51259;BME280;37327;54.254;18.504;2023-04-02T07:37:55;101079.81;;;2.16;97.49
51259;BME280;37327;54.254;18.504;2023-04-02T07:41:12;101086.40;;;2.23;97.86
51259;BME280;37327;54.254;18.504;2023-04-02T07:44:30;101084.86;;;2.32;98.08
51259;BME280;37327;54.254;18.504;2023-04-02T07:47:47;101097.34;;;2.31;97.34
51259;BME280;37327;54.254;18.504;2023-04-02T07:51:05;101100.00;;;2.31;97.65
51259;BME280;37327;54.254;18.504;2023-04-02T07:54:26;101108.10;;;2.30;96.99
51259;BME280;37327;54.254;18.504;2023-04-02T07:57:50;101123.60;;;2.25;95.96
51259;BME280;37327;54.254;18.504;2023-04-02T08:01:18;101120.06;;;2.24;96.26
51259;BME280;37327;54.254;18.504;2023-04-02T08:04:36;101133.27;;;2.26;96.87
51259;BME280;37327;54.254;18.504;2023-04-02T08:07:55;101137.52;;;2.28;96.69
51259;BME280;37327;54.254;18.504;2023-04-02T08:11:12;101133.17;;;2.27;96.05
51259;BME280;37327;54.254;18.504;2023-04-02T08:14:30;101138.50;;;2.27;96.17
51259;BME280;37327;54.254;18.504;2023-04-02T08:17:48;101156.41;;;2.25;95.44
51259;BME280;37327;54.254;18.504;2023-04-02T08:21:08;101154.84;;;2.23;94.52
51259;BME280;37327;54.254;18.504;2023-04-02T08:24:26;101174.43;;;2.22;94.15
51259;BME280;37327;54.254;18.504;2023-04-02T08:27:46;101162.93;;;2.21;93.53
51259;BME280;37327;54.254;18.504;2023-04-02T08:31:04;101170.82;;;2.23;93.80
51259;BME280;37327;54.254;18.504;2023-04-02T08:34:24;101176.64;;;2.28;93.68
51259;BME280;37327;54.254;18.504;2023-04-02T08:37:42;101170.58;;;2.26;93.21
51259;BME280;37327;54.254;18.504;2023-04-02T08:41:00;101182.72;;;2.30;93.52
51259;BME280;37327;54.254;18.504;2023-04-02T08:44:34;101183.24;;;2.35;93.58
51259;BME280;37327;54.254;18.504;2023-04-02T08:47:49;101206.88;;;2.40;93.82
51259;BME280;37327;54.254;18.504;2023-04-02T08:51:22;101196.22;;;2.40;92.42
51259;BME280;37327;54.254;18.504;2023-04-02T08:54:41;101191.13;;;2.36;92.36
51259;BME280;37327;54.254;18.504;2023-04-02T09:01:39;101208.24;;;2.45;91.80
51259;BME280;37327;54.254;18.504;2023-04-02T09:05:05;101215.47;;;2.56;91.47
51259;BME280;37327;54.254;18.504;2023-04-02T09:08:24;101224.48;;;2.66;90.51
51259;BME280;37327;54.254;18.504;2023-04-02T09:12:10;101242.80;;;2.71;90.41
51259;BME280;37327;54.254;18.504;2023-04-02T09:15:27;101240.30;;;2.81;90.61
51259;BME280;37327;54.254;18.504;2023-04-02T09:18:51;101247.73;;;2.88;89.48
51259;BME280;37327;54.254;18.504;2023-04-02T09:22:18;101255.40;;;2.93;88.44
51259;BME280;37327;54.254;18.504;2023-04-02T09:25:46;101265.91;;;3.07;88.76
51259;BME280;37327;54.254;18.504;2023-04-02T09:39:34;101283.00;;;3.05;82.70
51259;BME280;37327;54.254;18.504;2023-04-02T09:43:02;101284.79;;;3.04;82.51
51259;BME280;37327;54.254;18.504;2023-04-02T09:46:24;101304.84;;;3.10;83.66
51259;BME280;37327;54.254;18.504;2023-04-02T09:49:42;101293.59;;;3.18;83.02
51259;BME280;37327;54.254;18.504;2023-04-02T09:56:28;101306.47;;;3.24;82.65
51259;BME280;37327;54.254;18.504;2023-04-02T09:59:46;101313.28;;;3.28;82.56
51259;BME280;37327;54.254;18.504;2023-04-02T10:03:12;101308.08;;;3.26;80.99
51259;BME280;37327;54.254;18.504;2023-04-02T10:06:28;101306.73;;;3.21;80.17
51259;BME280;37327;54.254;18.504;2023-04-02T10:09:56;101333.34;;;3.09;78.76
51259;BME280;37327;54.254;18.504;2023-04-02T10:16:50;101332.71;;;3.06;79.24
51259;BME280;37327;54.254;18.504;2023-04-02T10:20:17;101349.11;;;3.12;77.25
51259;BME280;37327;54.254;18.504;2023-04-02T10:23:36;101350.71;;;3.15;76.57
51259;BME280;37327;54.254;18.504;2023-04-02T10:27:03;101357.70;;;3.29;77.90
51259;BME280;37327;54.254;18.504;2023-04-02T10:30:41;101353.70;;;3.59;76.51
51259;BME280;37327;54.254;18.504;2023-04-02T10:34:00;101370.70;;;3.58;73.66
51259;BME280;37327;54.254;18.504;2023-04-02T10:41:05;101375.74;;;3.49;70.99
51259;BME280;37327;54.254;18.504;2023-04-02T10:47:52;101391.95;;;3.94;71.94
51259;BME280;37327;54.254;18.504;2023-04-02T10:54:49;101420.88;;;4.12;68.77
51259;BME280;37327;54.254;18.504;2023-04-02T10:58:16;101410.33;;;4.22;69.72
51259;BME280;37327;54.254;18.504;2023-04-02T11:01:35;101413.29;;;4.30;67.89
51259;BME280;37327;54.254;18.504;2023-04-02T11:04:57;101442.10;;;4.38;65.10
51259;BME280;37327;54.254;18.504;2023-04-02T11:11:52;101436.76;;;4.38;65.15
51259;BME280;37327;54.254;18.504;2023-04-02T11:15:17;101427.80;;;4.61;65.86
51259;BME280;37327;54.254;18.504;2023-04-02T11:18:35;101456.21;;;4.51;64.84
51259;BME280;37327;54.254;18.504;2023-04-02T11:21:57;101454.26;;;4.42;65.34
51259;BME280;37327;54.254;18.504;2023-04-02T11:25:20;101461.48;;;4.17;64.74
51259;BME280;37327;54.254;18.504;2023-04-02T11:28:40;101450.90;;;4.15;63.10
51259;BME280;37327;54.254;18.504;2023-04-02T11:35:36;101465.77;;;4.31;64.76
51259;BME280;37327;54.254;18.504;2023-04-02T11:38:54;101486.83;;;4.35;64.46
51259;BME280;37327;54.254;18.504;2023-04-02T11:42:22;101488.88;;;4.43;64.44
51259;BME280;37327;54.254;18.504;2023-04-02T11:45:51;101483.86;;;4.27;64.49
51259;BME280;37327;54.254;18.504;2023-04-02T11:56:19;101504.11;;;4.54;64.97
51259;BME280;37327;54.254;18.504;2023-04-02T12:06:48;101522.57;;;4.46;63.31
51259;BME280;37327;54.254;18.504;2023-04-02T12:10:14;101531.07;;;4.40;63.20
51259;BME280;37327;54.254;18.504;2023-04-02T12:13:51;101524.52;;;4.44;63.10
51259;BME280;37327;54.254;18.504;2023-04-02T12:16:59;101534.70;;;4.39;63.91
51259;BME280;37327;54.254;18.504;2023-04-02T12:20:22;101544.05;;;4.09;62.63
51259;BME280;37327;54.254;18.504;2023-04-02T12:23:43;101547.52;;;3.74;63.32
51259;BME280;37327;54.254;18.504;2023-04-02T12:27:08;101535.17;;;3.84;65.46
51259;BME280;37327;54.254;18.504;2023-04-02T12:30:31;101543.43;;;4.05;65.28
51259;BME280;37327;54.254;18.504;2023-04-02T12:33:51;101565.09;;;4.13;64.27
51259;BME280;37327;54.254;18.504;2023-04-02T12:40:37;101551.34;;;4.07;63.98
51259;BME280;37327;54.254;18.504;2023-04-02T12:44:02;101559.45;;;4.29;64.07
51259;BME280;37327;54.254;18.504;2023-04-02T12:47:20;101571.55;;;4.46;63.06
51259;BME280;37327;54.254;18.504;2023-04-02T12:50:38;101575.54;;;4.41;62.48
51259;BME280;37327;54.254;18.504;2023-04-02T12:53:57;101577.48;;;4.39;62.99
51259;BME280;37327;54.254;18.504;2023-04-02T12:57:29;101579.36;;;4.25;63.05
51259;BME280;37327;54.254;18.504;2023-04-02T13:00:46;101566.91;;;4.13;63.49
51259;BME280;37327;54.254;18.504;2023-04-02T13:04:07;101572.48;;;4.10;64.05
51259;BME280;37327;54.254;18.504;2023-04-02T13:07:32;101568.67;;;4.25;63.76
51259;BME280;37327;54.254;18.504;2023-04-02T13:10:59;101583.23;;;4.21;63.17
51259;BME280;37327;54.254;18.504;2023-04-02T13:14:18;101597.23;;;4.25;62.17
51259;BME280;37327;54.254;18.504;2023-04-02T13:17:45;101581.02;;;4.15;61.73
51259;BME280;37327;54.254;18.504;2023-04-02T13:21:29;101602.61;;;4.12;62.49
51259;BME280;37327;54.254;18.504;2023-04-02T13:24:30;101594.10;;;4.07;61.93
51259;BME280;37327;54.254;18.504;2023-04-02T13:27:48;101586.58;;;4.12;63.13
51259;BME280;37327;54.254;18.504;2023-04-02T13:31:13;101597.05;;;4.15;62.22
51259;BME280;37327;54.254;18.504;2023-04-02T13:34:32;101598.53;;;4.19;63.11
51259;BME280;37327;54.254;18.504;2023-04-02T13:37:49;101603.14;;;4.17;62.09
51259;BME280;37327;54.254;18.504;2023-04-02T13:44:37;101614.05;;;4.14;62.83
51259;BME280;37327;54.254;18.504;2023-04-02T13:47:54;101621.01;;;4.17;63.54
51259;BME280;37327;54.254;18.504;2023-04-02T13:51:18;101617.59;;;4.14;62.68
51259;BME280;37327;54.254;18.504;2023-04-02T13:54:47;101617.24;;;4.19;62.79
51259;BME280;37327;54.254;18.504;2023-04-02T13:58:07;101631.91;;;4.13;62.14
51259;BME280;37327;54.254;18.504;2023-04-02T14:01:24;101635.13;;;4.06;62.22
51259;BME280;37327;54.254;18.504;2023-04-02T14:04:48;101663.29;;;3.99;61.66
51259;BME280;37327;54.254;18.504;2023-04-02T14:08:16;101642.47;;;3.91;63.15
51259;BME280;37327;54.254;18.504;2023-04-02T14:11:45;101647.75;;;4.04;63.32
51259;BME280;37327;54.254;18.504;2023-04-02T14:15:10;101642.66;;;4.01;63.33
51259;BME280;37327;54.254;18.504;2023-04-02T14:28:05;101665.45;;;3.81;63.64
51259;BME280;37327;54.254;18.504;2023-04-02T14:38:37;101682.89;;;3.73;63.59
51259;BME280;37327;54.254;18.504;2023-04-02T14:42:08;101681.06;;;3.74;64.36
51259;BME280;37327;54.254;18.504;2023-04-02T14:49:00;101691.10;;;3.70;63.98
51259;BME280;37327;54.254;18.504;2023-04-02T14:52:21;101691.21;;;3.69;64.77
51259;BME280;37327;54.254;18.504;2023-04-02T14:55:42;101696.78;;;3.66;64.61
51259;BME280;37327;54.254;18.504;2023-04-02T15:02:43;101700.09;;;3.56;65.29
51259;BME280;37327;54.254;18.504;2023-04-02T15:06:05;101703.40;;;3.60;65.66
51259;BME280;37327;54.254;18.504;2023-04-02T15:09:40;101706.71;;;3.51;64.85
51259;BME280;37327;54.254;18.504;2023-04-02T15:12:59;101708.63;;;3.49;66.45
51259;BME280;37327;54.254;18.504;2023-04-02T15:16:22;101724.32;;;3.53;66.96
51259;BME280;37327;54.254;18.504;2023-04-02T15:19:42;101730.73;;;3.51;66.93
51259;BME280;37327;54.254;18.504;2023-04-02T15:23:12;101720.48;;;3.45;67.21
51259;BME280;37327;54.254;18.504;2023-04-02T15:30:08;101754.23;;;3.33;66.58
51259;BME280;37327;54.254;18.504;2023-04-02T15:33:37;101733.58;;;3.22;66.58
51259;BME280;37327;54.254;18.504;2023-04-02T15:40:33;101741.39;;;3.25;68.54
51259;BME280;37327;54.254;18.504;2023-04-02T16:05:00;101773.29;;;2.87;71.97
51259;BME280;37327;54.254;18.504;2023-04-02T16:15:26;101792.67;;;2.76;72.95
51259;BME280;37327;54.254;18.504;2023-04-02T16:22:21;101806.29;;;2.71;73.92
51259;BME280;37327;54.254;18.504;2023-04-02T16:25:51;101812.33;;;2.61;74.02
51259;BME280;37327;54.254;18.504;2023-04-02T17:00:47;101857.25;;;1.95;79.06
51259;BME280;37327;54.254;18.504;2023-04-02T17:11:11;101867.98;;;1.79;79.49
51259;BME280;37327;54.254;18.504;2023-04-02T17:14:37;101865.59;;;1.74;79.13
51259;BME280;37327;54.254;18.504;2023-04-02T17:17:59;101873.84;;;1.70;78.83
51259;BME280;37327;54.254;18.504;2023-04-02T17:21:19;101879.28;;;1.68;78.82
51259;BME280;37327;54.254;18.504;2023-04-02T17:24:47;101891.14;;;1.63;79.52
51259;BME280;37327;54.254;18.504;2023-04-02T17:28:09;101891.23;;;1.61;80.00
51259;BME280;37327;54.254;18.504;2023-04-02T17:31:31;101887.88;;;1.57;80.54
51259;BME280;37327;54.254;18.504;2023-04-02T17:34:54;101890.83;;;1.53;80.48
51259;BME280;37327;54.254;18.504;2023-04-02T17:48:46;101912.80;;;1.41;80.27
51259;BME280;37327;54.254;18.504;2023-04-02T17:55:46;101908.61;;;1.36;79.04
51259;BME280;37327;54.254;18.504;2023-04-02T18:09:53;101937.22;;;1.33;77.86
51259;BME280;37327;54.254;18.504;2023-04-02T18:16:50;101945.98;;;1.35;78.11
51259;BME280;37327;54.254;18.504;2023-04-02T18:30:50;101959.16;;;1.21;77.00
51259;BME280;37327;54.254;18.504;2023-04-02T18:34:11;101960.91;;;1.22;76.36
51259;BME280;37327;54.254;18.504;2023-04-02T18:51:34;101980.80;;;1.14;76.04
51259;BME280;37327;54.254;18.504;2023-04-02T18:55:04;102000.53;;;1.10;76.33
51259;BME280;37327;54.254;18.504;2023-04-02T18:58:29;102006.01;;;1.07;76.17
51259;BME280;37327;54.254;18.504;2023-04-02T19:01:49;101997.11;;;1.08;76.08
51259;BME280;37327;54.254;18.504;2023-04-02T19:12:16;102013.40;;;1.02;77.51
51259;BME280;37327;54.254;18.504;2023-04-02T19:26:07;102017.32;;;0.95;76.75
51259;BME280;37327;54.254;18.504;2023-04-02T19:43:24;102038.07;;;0.88;76.60
51259;BME280;37327;54.254;18.504;2023-04-02T19:46:41;102032.84;;;0.87;77.29
51259;BME280;37327;54.254;18.504;2023-04-02T19:49:59;102045.95;;;0.90;77.55
51259;BME280;37327;54.254;18.504;2023-04-02T19:53:16;102045.95;;;0.90;78.26
51259;BME280;37327;54.254;18.504;2023-04-02T19:56:35;102048.46;;;0.93;78.41
51259;BME280;37327;54.254;18.504;2023-04-02T19:59:51;102039.55;;;0.94;77.97
51259;BME280;37327;54.254;18.504;2023-04-02T20:03:09;102051.19;;;0.91;77.49
51259;BME280;37327;54.254;18.504;2023-04-02T20:06:26;102060.98;;;0.91;76.81
51259;BME280;37327;54.254;18.504;2023-04-02T20:09:46;102063.64;;;0.91;76.10
51259;BME280;37327;54.254;18.504;2023-04-02T20:13:04;102068.95;;;0.91;76.18
51259;BME280;37327;54.254;18.504;2023-04-02T20:16:22;102074.43;;;0.88;76.54
51259;BME280;37327;54.254;18.504;2023-04-02T20:19:39;102063.89;;;0.86;76.63
51259;BME280;37327;54.254;18.504;2023-04-02T20:22:57;102069.28;;;0.85;76.70
51259;BME280;37327;54.254;18.504;2023-04-02T20:26:14;102080.84;;;0.84;76.83
51259;BME280;37327;54.254;18.504;2023-04-02T20:29:31;102092.59;;;0.79;76.92
51259;BME280;37327;54.254;18.504;2023-04-02T20:32:49;102087.44;;;0.76;77.10
51259;BME280;37327;54.254;18.504;2023-04-02T20:36:09;102082.02;;;0.78;77.48
51259;BME280;37327;54.254;18.504;2023-04-02T20:39:27;102079.47;;;0.76;78.26
51259;BME280;37327;54.254;18.504;2023-04-02T20:42:45;102089.33;;;0.74;79.00
51259;BME280;37327;54.254;18.504;2023-04-02T20:46:04;102090.95;;;0.77;79.76
51259;BME280;37327;54.254;18.504;2023-04-02T20:49:23;102085.56;;;0.78;80.61
51259;BME280;37327;54.254;18.504;2023-04-02T20:52:40;102092.59;;;0.79;81.17
51259;BME280;37327;54.254;18.504;2023-04-02T20:56:03;102087.34;;;0.78;81.55
51259;BME280;37327;54.254;18.504;2023-04-02T20:59:21;102101.52;;;0.78;81.55
51259;BME280;37327;54.254;18.504;2023-04-02T21:02:39;102090.88;;;0.78;81.90
51259;BME280;37327;54.254;18.504;2023-04-02T21:05:56;102094.53;;;0.76;82.08
51259;BME280;37327;54.254;18.504;2023-04-02T21:09:16;102094.78;;;0.71;82.36
51259;BME280;37327;54.254;18.504;2023-04-02T21:12:34;102089.47;;;0.71;83.27
51259;BME280;37327;54.254;18.504;2023-04-02T21:15:51;102098.37;;;0.70;83.63
51259;BME280;37327;54.254;18.504;2023-04-02T21:19:09;102106.45;;;0.69;83.81
51259;BME280;37327;54.254;18.504;2023-04-02T21:22:27;102103.87;;;0.67;84.02
51259;BME280;37327;54.254;18.504;2023-04-02T21:29:13;102112.75;;;0.66;84.25
51259;BME280;37327;54.254;18.504;2023-04-02T21:32:31;102118.07;;;0.66;84.35
51259;BME280;37327;54.254;18.504;2023-04-02T21:35:49;102121.76;;;0.64;83.92
51259;BME280;37327;54.254;18.504;2023-04-02T21:39:10;102111.27;;;0.61;82.77
51259;BME280;37327;54.254;18.504;2023-04-02T21:42:28;102118.57;;;0.57;82.02
51259;BME280;37327;54.254;18.504;2023-04-02T21:45:46;102125.76;;;0.55;82.12
51259;BME280;37327;54.254;18.504;2023-04-02T21:49:04;102125.05;;;0.51;82.03
51259;BME280;37327;54.254;18.504;2023-04-02T21:52:23;102133.22;;;0.47;82.55
51259;BME280;37327;54.254;18.504;2023-04-02T21:55:41;102127.91;;;0.47;82.40
51259;BME280;37327;54.254;18.504;2023-04-02T21:58:58;102134.12;;;0.47;82.35
51259;BME280;37327;54.254;18.504;2023-04-02T22:02:17;102142.94;;;0.48;82.59
51259;BME280;37327;54.254;18.504;2023-04-02T22:05:34;102134.97;;;0.48;82.84
51259;BME280;37327;54.254;18.504;2023-04-02T22:09:00;102137.54;;;0.49;83.21
51259;BME280;37327;54.254;18.504;2023-04-02T22:12:17;102139.26;;;0.50;83.54
51259;BME280;37327;54.254;18.504;2023-04-02T22:15:34;102145.52;;;0.49;84.00
51259;BME280;37327;54.254;18.504;2023-04-02T22:18:54;102156.23;;;0.48;84.45
51259;BME280;37327;54.254;18.504;2023-04-02T22:22:11;102143.65;;;0.51;84.59
51259;BME280;37327;54.254;18.504;2023-04-02T22:25:29;102148.90;;;0.53;85.05
51259;BME280;37327;54.254;18.504;2023-04-02T22:28:47;102153.12;;;0.57;84.99
51259;BME280;37327;54.254;18.504;2023-04-02T22:32:06;102147.70;;;0.58;85.60
51259;BME280;37327;54.254;18.504;2023-04-02T22:35:23;102148.48;;;0.61;85.82
51259;BME280;37327;54.254;18.504;2023-04-02T22:38:41;102159.92;;;0.63;86.11
51259;BME280;37327;54.254;18.504;2023-04-02T22:41:58;102153.59;;;0.65;86.38